createdAt,value
2023-04-07T00:01:21.913Z,8.30
2023-04-07T00:03:52.955Z,8.30
2023-04-07T00:06:23.970Z,8.30
2023-04-07T00:08:53.599Z,8.30
2023-04-07T00:11:23.111Z,8.30
2023-04-07T00:13:52.833Z,8.30
2023-04-07T00:16:23.871Z,8.30
2023-04-07T00:18:56.081Z,8.30
2023-04-07T00:21:25.911Z,8.30
2023-04-07T00:23:55.341Z,8.30
2023-04-07T00:26:25.874Z,8.30
2023-04-07T00:28:55.701Z,8.30
2023-04-07T00:31:25.459Z,8.30
2023-04-07T00:33:58.051Z,8.30
2023-04-07T00:36:31.857Z,8.30
2023-04-07T00:39:01.799Z,8.30
2023-04-07T00:41:31.472Z,8.30
2023-04-07T00:44:01.010Z,8.30
2023-04-07T00:46:31.612Z,8.30
2023-04-07T00:49:04.534Z,8.30
2023-04-07T00:51:36.138Z,8.30
2023-04-07T00:54:06.969Z,8.30
2023-04-07T00:56:38.139Z,8.30
2023-04-07T00:59:08.689Z,8.40
2023-04-07T01:01:46.927Z,8.40
2023-04-07T01:04:29.458Z,8.40
2023-04-07T01:07:06.281Z,8.40
2023-04-07T01:09:48.777Z,8.40
2023-04-07T01:12:26.215Z,8.40
2023-04-07T01:15:02.648Z,8.40
2023-04-07T01:17:48.140Z,8.40
2023-04-07T01:20:25.612Z,8.50
2023-04-07T01:23:04.343Z,8.50
2023-04-07T01:25:50.693Z,8.60
2023-04-07T01:28:46.967Z,8.60
2023-04-07T01:31:20.042Z,8.60
2023-04-07T01:33:52.032Z,8.60
2023-04-07T01:36:23.340Z,8.60
2023-04-07T01:38:55.602Z,8.60
2023-04-07T01:41:27.072Z,8.60
2023-04-07T01:43:57.462Z,8.60
2023-04-07T01:46:29.208Z,8.50
2023-04-07T01:48:59.941Z,8.60
2023-04-07T01:51:30.699Z,8.50
2023-04-07T01:54:00.810Z,8.50
2023-04-07T01:56:29.795Z,8.60
2023-04-07T01:59:00.519Z,8.70
2023-04-07T02:01:31.904Z,8.70
2023-04-07T02:04:08.157Z,8.80
2023-04-07T02:06:44.835Z,8.80
2023-04-07T02:09:18.854Z,8.90
2023-04-07T02:11:48.224Z,9.00
2023-04-07T02:14:18.138Z,9.00
2023-04-07T02:17:04.237Z,8.90
2023-04-07T02:19:34.847Z,8.90
2023-04-07T02:22:06.772Z,9.00
2023-04-07T02:24:36.776Z,9.00
2023-04-07T02:27:06.691Z,8.90
2023-04-07T02:29:36.297Z,8.90
2023-04-07T02:32:10.377Z,8.90
2023-04-07T02:34:39.787Z,8.90
2023-04-07T02:37:09.610Z,8.90
2023-04-07T02:39:40.229Z,9.00
2023-04-07T02:42:09.836Z,8.90
2023-04-07T02:44:38.930Z,9.00
2023-04-07T02:47:10.605Z,9.00
2023-04-07T02:49:40.097Z,8.90
2023-04-07T02:52:09.519Z,8.90
2023-04-07T02:54:38.686Z,8.90
2023-04-07T02:57:08.097Z,8.90
2023-04-07T02:59:37.529Z,8.90
2023-04-07T03:02:09.242Z,8.90
2023-04-07T03:04:39.566Z,8.90
2023-04-07T03:07:09.419Z,8.80
2023-04-07T03:09:39.166Z,8.80
2023-04-07T03:12:09.434Z,8.80
2023-04-07T03:14:41.038Z,8.80
2023-04-07T03:17:14.386Z,8.80
2023-04-07T03:19:47.983Z,8.80
2023-04-07T03:22:17.624Z,8.80
2023-04-07T03:24:52.685Z,8.80
2023-04-07T03:27:26.001Z,8.80
2023-04-07T03:29:57.059Z,8.80
2023-04-07T03:32:30.595Z,8.80
2023-04-07T03:35:00.318Z,8.80
2023-04-07T03:37:29.658Z,8.80
2023-04-07T03:39:59.485Z,8.80
2023-04-07T03:42:33.210Z,8.80
2023-04-07T03:45:07.311Z,8.80
2023-04-07T03:47:44.713Z,8.80
2023-04-07T03:50:15.882Z,8.70
2023-04-07T03:52:59.848Z,8.70
2023-04-07T03:55:34.215Z,8.70
2023-04-07T03:58:11.549Z,8.70
2023-04-07T04:00:42.084Z,8.70
2023-04-07T04:03:15.409Z,8.60
2023-04-07T04:05:59.233Z,8.60
2023-04-07T04:08:32.868Z,8.60
2023-04-07T04:11:06.008Z,8.60
2023-04-07T04:13:42.352Z,8.60
2023-04-07T04:16:14.991Z,8.60
2023-04-07T04:18:47.296Z,8.60
2023-04-07T04:21:17.598Z,8.60
2023-04-07T04:23:48.567Z,8.60
2023-04-07T04:26:18.023Z,8.60
2023-04-07T04:28:47.809Z,8.60
2023-04-07T04:31:18.825Z,8.60
2023-04-07T04:33:49.460Z,8.60
2023-04-07T04:36:18.827Z,8.50
2023-04-07T04:38:48.726Z,8.60
2023-04-07T04:41:22.529Z,8.60
2023-04-07T04:43:52.863Z,8.60
2023-04-07T04:46:26.249Z,8.60
2023-04-07T04:48:58.638Z,8.50
2023-04-07T04:51:28.791Z,8.50
2023-04-07T04:54:04.473Z,8.50
2023-04-07T04:56:34.729Z,8.40
2023-04-07T04:59:06.098Z,8.50
2023-04-07T05:01:58.606Z,8.50
2023-04-07T05:04:30.711Z,8.50
2023-04-07T05:07:12.810Z,8.50
2023-04-07T05:09:42.133Z,8.50
2023-04-07T05:12:11.648Z,8.50
2023-04-07T05:14:46.402Z,8.50
2023-04-07T05:17:17.623Z,8.50
2023-04-07T05:19:48.880Z,8.50
2023-04-07T05:22:28.090Z,8.50
2023-04-07T05:24:57.686Z,8.50
2023-04-07T05:27:26.976Z,8.40
2023-04-07T05:29:59.738Z,8.50
2023-04-07T05:32:33.642Z,8.50
2023-04-07T05:35:11.270Z,8.50
2023-04-07T05:37:47.078Z,8.50
2023-04-07T05:40:16.826Z,8.40
2023-04-07T05:42:48.814Z,8.50
2023-04-07T05:45:20.925Z,8.50
2023-04-07T05:47:54.549Z,8.50
2023-04-07T05:50:33.593Z,8.40
2023-04-07T05:53:07.328Z,8.40
2023-04-07T05:55:37.155Z,8.40
2023-04-07T05:58:10.228Z,8.50
2023-04-07T06:00:43.477Z,8.50
2023-04-07T06:03:17.465Z,8.50
2023-04-07T06:06:13.624Z,8.50
2023-04-07T06:08:42.785Z,8.50
2023-04-07T06:11:13.433Z,8.40
2023-04-07T06:13:45.085Z,8.40
2023-04-07T06:16:17.383Z,8.50
2023-04-07T06:18:47.423Z,8.40
2023-04-07T06:21:23.662Z,8.40
2023-04-07T06:23:53.574Z,8.40
2023-04-07T06:26:26.202Z,8.40
2023-04-07T06:28:57.777Z,8.40
2023-04-07T06:31:27.246Z,8.40
2023-04-07T06:33:56.214Z,8.50
2023-04-07T06:36:27.880Z,8.50
2023-04-07T06:38:56.646Z,8.50
2023-04-07T06:41:25.606Z,8.50
2023-04-07T06:43:54.367Z,8.60
2023-04-07T06:46:23.742Z,8.60
2023-04-07T06:48:52.653Z,8.60
2023-04-07T06:51:21.315Z,8.70
2023-04-07T06:53:51.863Z,8.70
2023-04-07T06:56:24.392Z,8.70
2023-04-07T06:58:53.252Z,8.70
2023-04-07T07:01:22.329Z,8.80
2023-04-07T07:03:51.742Z,8.80
2023-04-07T07:06:20.965Z,8.90
2023-04-07T07:08:51.415Z,9.00
2023-04-07T07:11:20.289Z,9.00
2023-04-07T07:13:49.596Z,9.10
2023-04-07T07:16:18.732Z,9.10
2023-04-07T07:18:47.786Z,9.10
2023-04-07T07:21:16.394Z,9.10
2023-04-07T07:23:45.383Z,9.10
2023-04-07T07:26:15.813Z,9.20
2023-04-07T07:28:44.600Z,9.20
2023-04-07T07:31:16.027Z,9.30
2023-04-07T07:33:46.606Z,9.40
2023-04-07T07:36:15.580Z,9.50
2023-04-07T07:38:44.321Z,9.50
2023-04-07T07:41:17.971Z,9.50
2023-04-07T07:43:49.018Z,9.40
2023-04-07T07:46:18.399Z,9.40
2023-04-07T07:48:47.693Z,9.40
2023-04-07T07:51:16.657Z,9.30
2023-04-07T07:53:45.373Z,9.40
2023-04-07T07:56:16.141Z,9.40
2023-04-07T07:58:44.994Z,9.40
2023-04-07T08:01:13.931Z,9.50
2023-04-07T08:03:43.313Z,9.60
2023-04-07T08:06:13.330Z,9.60
2023-04-07T08:08:42.944Z,9.50
2023-04-07T08:11:12.546Z,9.50
2023-04-07T08:13:46.294Z,9.60
2023-04-07T08:16:22.546Z,9.60
2023-04-07T08:18:52.307Z,9.70
2023-04-07T08:21:21.938Z,9.70
2023-04-07T08:23:51.097Z,9.70
2023-04-07T08:26:20.268Z,9.60
2023-04-07T08:28:51.777Z,9.50
2023-04-07T08:31:21.253Z,9.40
2023-04-07T08:33:54.378Z,9.40
2023-04-07T08:36:23.478Z,9.40
2023-04-07T08:38:52.350Z,9.40
2023-04-07T08:41:32.241Z,9.50
2023-04-07T08:44:03.937Z,9.60
2023-04-07T08:46:33.745Z,9.60
2023-04-07T08:49:03.570Z,9.50
2023-04-07T08:51:35.799Z,9.50
2023-04-07T08:54:11.168Z,9.50
2023-04-07T08:56:43.770Z,9.50
2023-04-07T08:59:18.789Z,9.40
2023-04-07T09:01:49.114Z,9.40
2023-04-07T09:04:19.089Z,9.50
2023-04-07T09:06:48.420Z,9.50
2023-04-07T09:09:17.626Z,9.60
2023-04-07T09:11:46.658Z,9.60
2023-04-07T09:14:18.847Z,9.60
2023-04-07T09:16:48.366Z,9.70
2023-04-07T09:19:17.293Z,9.70
2023-04-07T09:21:50.290Z,9.70
2023-04-07T09:24:28.269Z,9.70
2023-04-07T09:27:16.590Z,9.80
2023-04-07T09:29:48.988Z,9.90
2023-04-07T09:32:38.935Z,10.00
2023-04-07T09:35:08.369Z,10.00
2023-04-07T09:37:37.551Z,10.00
2023-04-07T09:40:07.500Z,10.00
2023-04-07T09:42:38.162Z,10.00
2023-04-07T09:45:09.612Z,10.20
2023-04-07T09:47:40.624Z,10.10
2023-04-07T09:50:10.130Z,10.10
2023-04-07T09:52:53.395Z,10.00
2023-04-07T09:55:23.628Z,10.10
2023-04-07T09:57:53.522Z,10.10
2023-04-07T10:00:24.247Z,10.10
2023-04-07T10:02:54.588Z,10.10
2023-04-07T10:05:24.165Z,10.10
2023-04-07T10:07:52.872Z,10.20
2023-04-07T10:10:22.098Z,10.10
2023-04-07T10:12:55.770Z,10.20
2023-04-07T10:15:34.810Z,10.20
2023-04-07T10:18:13.276Z,10.30
2023-04-07T10:20:43.062Z,10.40
2023-04-07T10:23:19.604Z,10.40
2023-04-07T10:25:49.189Z,10.40
2023-04-07T10:28:19.538Z,10.40
2023-04-07T10:30:51.323Z,10.50
2023-04-07T10:33:22.112Z,10.60
2023-04-07T10:36:07.921Z,10.70
2023-04-07T10:38:37.056Z,10.70
2023-04-07T10:41:36.762Z,10.60
2023-04-07T10:44:08.348Z,10.70
2023-04-07T10:47:08.795Z,10.70
2023-04-07T10:49:38.223Z,10.60
2023-04-07T10:52:26.067Z,10.50
2023-04-07T10:55:31.020Z,10.50
2023-04-07T10:58:19.082Z,10.60
2023-04-07T11:01:21.125Z,10.70
2023-04-07T11:04:02.130Z,10.80
2023-04-07T11:06:31.763Z,10.60
2023-04-07T11:09:01.059Z,10.70
2023-04-07T11:11:43.163Z,10.90
2023-04-07T11:14:12.586Z,11.10
2023-04-07T11:16:45.791Z,11.40
2023-04-07T11:19:16.277Z,11.70
2023-04-07T11:21:45.212Z,12.10
2023-04-07T11:24:33.868Z,12.60
2023-04-07T11:27:29.028Z,12.50
2023-04-07T11:30:00.309Z,13.00
2023-04-07T11:32:40.805Z,13.10
2023-04-07T11:35:17.655Z,13.20
2023-04-07T11:38:08.351Z,13.40
2023-04-07T11:40:44.128Z,13.60
2023-04-07T11:43:27.135Z,14.00
2023-04-07T11:46:10.400Z,13.60
2023-04-07T11:48:40.965Z,13.30
2023-04-07T11:51:19.207Z,13.20
2023-04-07T11:53:49.840Z,13.60
2023-04-07T11:56:19.307Z,13.90
2023-04-07T11:58:51.846Z,13.50
2023-04-07T12:01:24.957Z,13.60
2023-04-07T12:03:59.659Z,13.20
2023-04-07T12:06:31.179Z,13.20
2023-04-07T12:09:00.097Z,13.20
2023-04-07T12:11:30.282Z,12.90
2023-04-07T12:13:59.102Z,12.50
2023-04-07T12:16:27.960Z,12.40
2023-04-07T12:18:57.637Z,12.40
2023-04-07T12:21:27.062Z,12.40
2023-04-07T12:23:57.160Z,12.50
2023-04-07T12:26:26.175Z,12.40
2023-04-07T12:28:55.431Z,12.30
2023-04-07T12:31:24.420Z,11.70
2023-04-07T12:33:53.223Z,11.30
2023-04-07T12:36:22.251Z,11.40
2023-04-07T12:38:50.923Z,11.30
2023-04-07T12:41:21.573Z,11.20
2023-04-07T12:43:51.072Z,11.10
2023-04-07T12:46:23.059Z,10.90
2023-04-07T12:48:51.770Z,11.00
2023-04-07T12:51:20.637Z,11.10
2023-04-07T12:53:49.758Z,11.10
2023-04-07T12:56:18.790Z,11.20
2023-04-07T12:58:49.136Z,11.10
2023-04-07T13:01:17.964Z,11.00
2023-04-07T13:03:47.324Z,11.00
2023-04-07T13:06:17.686Z,11.00
2023-04-07T13:08:49.277Z,10.80
2023-04-07T13:11:17.810Z,10.90
2023-04-07T13:13:47.156Z,11.10
2023-04-07T13:16:17.878Z,11.20
2023-04-07T13:18:46.832Z,11.30
2023-04-07T13:23:48.882Z,11.20
2023-04-07T13:26:18.077Z,11.40
2023-04-07T13:28:49.316Z,11.50
2023-04-07T13:31:22.409Z,11.40
2023-04-07T13:33:52.212Z,11.50
2023-04-07T13:36:23.319Z,11.40
2023-04-07T13:39:22.733Z,11.40
2023-04-07T13:48:45.972Z,11.50
2023-04-07T13:51:59.664Z,11.60
2023-04-07T13:55:31.127Z,11.80
2023-04-07T13:59:16.622Z,11.70
2023-04-07T14:02:27.957Z,11.70
2023-04-07T14:05:14.990Z,11.80
2023-04-07T14:08:46.957Z,11.60
2023-04-07T14:11:22.622Z,11.50
2023-04-07T14:13:52.668Z,11.60
2023-04-07T14:16:22.213Z,11.50
2023-04-07T14:18:51.974Z,11.40
2023-04-07T14:21:22.668Z,11.20
2023-04-07T14:23:52.005Z,11.30
2023-04-07T14:26:21.634Z,11.20
2023-04-07T14:28:52.732Z,11.10
2023-04-07T14:31:22.349Z,10.80
2023-04-07T14:33:51.650Z,10.70
2023-04-07T14:36:22.274Z,10.60
2023-04-07T14:43:29.480Z,10.70
2023-04-07T14:46:02.724Z,10.60
2023-04-07T14:48:34.507Z,10.70
2023-04-07T14:51:16.531Z,10.70
2023-04-07T14:53:58.653Z,10.60
2023-04-07T14:56:30.151Z,10.50
2023-04-07T14:59:02.828Z,10.70
2023-04-07T15:01:35.135Z,10.90
2023-04-07T15:04:07.842Z,11.10
2023-04-07T15:06:40.311Z,11.20
2023-04-07T15:09:15.192Z,11.10
2023-04-07T15:11:48.381Z,11.00
2023-04-07T15:14:18.901Z,11.00
2023-04-07T15:16:51.356Z,11.10
2023-04-07T15:19:25.674Z,11.20
2023-04-07T15:22:02.891Z,11.20
2023-04-07T15:24:39.175Z,11.00
2023-04-07T15:27:23.944Z,10.90
2023-04-07T15:29:59.337Z,11.00
2023-04-07T15:32:40.873Z,10.80
2023-04-07T15:35:13.366Z,10.80
2023-04-07T15:37:48.281Z,10.70
2023-04-07T15:40:26.630Z,10.60
2023-04-07T15:43:00.394Z,10.50
2023-04-07T15:45:37.060Z,10.40
2023-04-07T15:48:10.615Z,10.40
2023-04-07T15:50:46.818Z,10.40
2023-04-07T15:53:18.320Z,10.50
2023-04-07T15:55:52.297Z,10.50
2023-04-07T15:58:24.029Z,10.60
2023-04-07T16:00:56.239Z,10.60
2023-04-07T16:03:30.691Z,10.50
2023-04-07T16:06:00.442Z,10.50
2023-04-07T16:08:32.318Z,10.40
2023-04-07T16:11:10.242Z,10.50
2023-04-07T16:13:43.178Z,10.40
2023-04-07T16:16:15.057Z,10.40
2023-04-07T16:18:48.295Z,10.40
2023-04-07T16:21:19.901Z,10.30
2023-04-07T16:23:50.329Z,10.30
2023-04-07T16:26:22.852Z,10.40
2023-04-07T16:28:55.207Z,10.40
2023-04-07T16:31:25.957Z,10.40
2023-04-07T16:33:56.444Z,10.40
2023-04-07T16:36:26.773Z,10.40
2023-04-07T16:38:58.917Z,10.40
2023-04-07T16:41:30.940Z,10.40
2023-04-07T16:44:01.720Z,10.40
2023-04-07T16:46:32.716Z,10.30
2023-04-07T16:49:04.161Z,10.30
2023-04-07T16:51:34.095Z,10.20
2023-04-07T16:54:04.226Z,10.20
2023-04-07T16:56:37.200Z,10.20
2023-04-07T16:59:08.274Z,10.30
2023-04-07T17:01:42.329Z,10.30
2023-04-07T17:04:13.049Z,10.30
2023-04-07T17:06:43.652Z,10.20
2023-04-07T17:09:17.743Z,10.20
2023-04-07T17:11:51.385Z,10.20
2023-04-07T17:14:21.269Z,10.30
2023-04-07T17:16:51.171Z,10.20
2023-04-07T17:19:22.357Z,10.20
2023-04-07T17:21:52.646Z,10.20
2023-04-07T17:24:22.899Z,10.30
2023-04-07T17:26:54.741Z,10.20
2023-04-07T17:29:29.284Z,10.20
2023-04-07T17:31:59.042Z,10.20
2023-04-07T17:34:28.792Z,10.20
2023-04-07T17:36:59.406Z,10.20
2023-04-07T17:39:31.466Z,10.20
2023-04-07T17:42:03.269Z,10.10
2023-04-07T17:44:35.045Z,10.20
2023-04-07T17:47:04.976Z,10.20
2023-04-07T17:49:35.368Z,10.20
2023-04-07T17:52:04.584Z,10.10
2023-04-07T17:54:34.978Z,10.10
2023-04-07T17:57:06.855Z,10.00
2023-04-07T17:59:39.810Z,10.00
2023-04-07T18:02:10.780Z,10.10
2023-04-07T18:04:41.478Z,10.10
2023-04-07T18:07:14.064Z,9.90
2023-04-07T18:09:46.500Z,9.80
2023-04-07T18:12:18.861Z,9.90
2023-04-07T18:14:49.617Z,10.00
2023-04-07T18:17:19.329Z,9.90
2023-04-07T18:19:48.906Z,10.00
2023-04-07T18:22:19.653Z,9.90
2023-04-07T18:24:53.245Z,9.80
2023-04-07T18:27:25.714Z,9.90
2023-04-07T18:29:56.653Z,9.90
2023-04-07T18:32:26.909Z,9.80
2023-04-07T18:34:57.087Z,9.80
2023-04-07T18:37:29.560Z,9.80
2023-04-07T18:40:00.900Z,9.80
2023-04-07T18:42:33.487Z,9.80
2023-04-07T18:45:05.615Z,9.70
2023-04-07T18:47:35.673Z,9.70
2023-04-07T18:50:07.260Z,9.70
2023-04-07T18:52:36.514Z,9.70
2023-04-07T18:55:10.422Z,9.60
2023-04-07T19:09:09.535Z,9.60
2023-04-07T19:11:42.822Z,9.50
2023-04-07T19:14:25.871Z,9.60
2023-04-07T19:16:57.619Z,9.50
2023-04-07T19:19:29.211Z,9.50
2023-04-07T19:21:59.588Z,9.50
2023-04-07T19:24:37.956Z,9.40
2023-04-07T19:27:10.067Z,9.40
2023-04-07T19:29:57.872Z,9.30
2023-04-07T19:32:30.946Z,9.30
2023-04-07T19:35:13.630Z,9.30
2023-04-07T19:37:45.173Z,9.20
2023-04-07T19:40:16.074Z,9.20
2023-04-07T19:42:47.518Z,9.20
2023-04-07T19:45:20.258Z,9.20
2023-04-07T19:48:07.680Z,9.20
2023-04-07T19:50:50.656Z,9.20
2023-04-07T19:53:25.779Z,9.20
2023-04-07T19:56:09.237Z,9.20
2023-04-07T19:58:39.228Z,9.20
2023-04-07T20:01:18.903Z,9.30
2023-04-07T20:03:50.253Z,9.30
2023-04-07T20:06:24.948Z,9.20
2023-04-07T20:08:57.765Z,9.20
2023-04-07T20:11:28.252Z,9.20
2023-04-07T20:13:58.222Z,9.20
2023-04-07T20:16:31.368Z,9.20
2023-04-07T20:19:05.591Z,9.20
2023-04-07T20:21:38.188Z,9.20
2023-04-07T20:24:14.694Z,9.30
2023-04-07T20:26:46.296Z,9.30
2023-04-07T20:29:18.704Z,9.20
2023-04-07T20:31:52.451Z,9.20
2023-04-07T20:34:22.861Z,9.30
2023-04-07T20:39:54.824Z,9.30
2023-04-07T20:42:05.460Z,9.20
2023-04-07T20:45:46.645Z,9.20
2023-04-07T20:49:54.183Z,9.20
2023-04-07T20:52:09.354Z,9.20
2023-04-07T20:54:49.911Z,9.20
2023-04-07T20:57:46.951Z,9.10
2023-04-07T21:01:00.757Z,9.10
2023-04-07T21:03:35.348Z,9.10
2023-04-07T21:06:12.198Z,9.10
2023-04-07T21:35:32.116Z,9.00
2023-04-07T21:41:15.626Z,9.00
2023-04-07T21:43:44.299Z,9.00
2023-04-07T21:46:14.357Z,9.00
2023-04-07T21:48:43.301Z,9.00
2023-04-07T21:51:12.121Z,8.90
2023-04-07T21:53:40.778Z,8.90
2023-04-07T21:56:09.882Z,8.90
2023-04-07T21:58:42.095Z,8.90
2023-04-07T22:01:10.929Z,8.90
2023-04-07T22:03:40.129Z,8.90
2023-04-07T22:06:09.030Z,9.00
2023-04-07T22:08:37.758Z,9.00
2023-04-07T22:11:07.721Z,9.00
2023-04-07T22:13:37.372Z,9.10
2023-04-07T22:16:08.412Z,9.00
2023-04-07T22:18:37.038Z,9.00
2023-04-07T22:21:06.075Z,9.00
2023-04-07T22:23:34.833Z,9.00
2023-04-07T22:26:03.749Z,9.00
2023-04-07T22:28:32.620Z,9.00
2023-04-07T22:31:01.501Z,9.10
2023-04-07T22:33:34.754Z,9.10
2023-04-07T22:36:04.034Z,9.00
2023-04-07T22:38:32.755Z,9.00
2023-04-07T22:41:01.486Z,9.10
2023-04-07T22:43:30.087Z,9.10
2023-04-07T22:45:58.664Z,9.20
2023-04-07T22:48:28.229Z,9.10
2023-04-07T22:50:58.433Z,9.10
2023-04-07T22:53:27.003Z,9.10
2023-04-07T22:55:55.913Z,9.10
2023-04-07T22:58:24.712Z,9.00
2023-04-07T23:00:53.142Z,9.10
2023-04-07T23:03:21.822Z,9.20
2023-04-07T23:05:50.584Z,9.20
2023-04-07T23:08:20.882Z,9.20
2023-04-07T23:10:49.337Z,9.10
2023-04-07T23:13:19.155Z,9.20
2023-04-07T23:15:47.687Z,9.20
2023-04-07T23:18:16.390Z,9.20
2023-04-07T23:20:52.223Z,9.20
2023-04-07T23:23:22.327Z,9.20
2023-04-07T23:25:50.929Z,9.30
2023-04-07T23:28:19.618Z,9.20
2023-04-07T23:30:48.244Z,9.30
2023-04-07T23:33:16.854Z,9.30
2023-04-07T23:35:45.464Z,9.30
2023-04-07T23:38:14.377Z,9.20
2023-04-07T23:40:44.584Z,9.20
2023-04-07T23:43:13.291Z,9.30
2023-04-07T23:45:42.062Z,9.30
2023-04-07T23:48:10.828Z,9.30
2023-04-07T23:50:39.450Z,9.40
2023-04-07T23:53:08.119Z,9.30
2023-04-07T23:55:36.813Z,9.30
2023-04-07T23:58:06.798Z,9.20
